sensor_id;sensor_type;location;lat;lon;timestamp;pressure;altitude;pressure_sealevel;temperature;humidity
35248;BME280;21380;52.194;20.520;2023-06-26T00:01:15;100493.56;;;22.06;64.85
35248;BME280;21380;52.194;20.520;2023-06-26T00:03:54;100491.81;;;22.05;64.68
35248;BME280;21380;52.194;20.520;2023-06-26T00:06:19;100465.63;;;21.93;64.85
35248;BME280;21380;52.194;20.520;2023-06-26T00:08:46;100491.81;;;22.03;64.31
35248;BME280;21380;52.194;20.520;2023-06-26T00:11:11;100490.06;;;22.02;64.57
35248;BME280;21380;52.194;20.520;2023-06-26T00:13:37;100487.44;;;22.02;64.44
35248;BME280;21380;52.194;20.520;2023-06-26T00:16:02;100490.94;;;22.01;64.46
35248;BME280;21380;52.194;20.520;2023-06-26T00:18:29;100484.84;;;22.01;64.37
35248;BME280;21380;52.194;20.520;2023-06-26T00:20:55;100488.31;;;22.01;64.42
35248;BME280;21380;52.194;20.520;2023-06-26T00:23:21;100486.56;;;22.00;64.29
35248;BME280;21380;52.194;20.520;2023-06-26T00:25:46;100483.09;;;22.00;64.48
35248;BME280;21380;52.194;20.520;2023-06-26T00:28:12;100488.34;;;22.00;64.44
35248;BME280;21380;52.194;20.520;2023-06-26T00:30:38;100492.69;;;21.99;64.40
35248;BME280;21380;52.194;20.520;2023-06-26T00:33:04;100497.09;;;21.99;64.44
35248;BME280;21380;52.194;20.520;2023-06-26T00:35:29;100497.09;;;21.99;64.67
35248;BME280;21380;52.194;20.520;2023-06-26T00:37:55;100492.72;;;21.98;64.43
35248;BME280;21380;52.194;20.520;2023-06-26T00:40:21;100492.72;;;21.98;64.38
35248;BME280;21380;52.194;20.520;2023-06-26T00:42:47;100494.50;;;21.97;64.76
35248;BME280;21380;52.194;20.520;2023-06-26T00:45:12;100493.59;;;21.97;64.55
35248;BME280;21380;52.194;20.520;2023-06-26T00:47:38;100488.34;;;21.95;64.60
35248;BME280;21380;52.194;20.520;2023-06-26T00:50:04;100495.38;;;21.96;64.32
35248;BME280;21380;52.194;20.520;2023-06-26T00:52:31;100484.88;;;21.95;64.50
35248;BME280;21380;52.194;20.520;2023-06-26T00:55:00;100479.63;;;21.95;64.53
35248;BME280;21380;52.194;20.520;2023-06-26T00:57:27;100481.34;;;21.94;64.34
35248;BME280;21380;52.194;20.520;2023-06-26T00:59:52;100483.13;;;21.94;64.34
35248;BME280;21380;52.194;20.520;2023-06-26T01:02:18;100476.97;;;21.93;64.42
35248;BME280;21380;52.194;20.520;2023-06-26T01:04:49;100472.63;;;21.94;64.41
35248;BME280;21380;52.194;20.520;2023-06-26T01:07:16;100478.75;;;21.93;64.39
35248;BME280;21380;52.194;20.520;2023-06-26T01:09:45;100476.13;;;21.93;64.43
35248;BME280;21380;52.194;20.520;2023-06-26T01:12:11;100474.38;;;21.92;64.40
35248;BME280;21380;52.194;20.520;2023-06-26T01:14:37;100479.63;;;21.92;64.18
35248;BME280;21380;52.194;20.520;2023-06-26T01:17:03;100468.25;;;21.91;64.26
35248;BME280;21380;52.194;20.520;2023-06-26T01:19:29;100470.88;;;21.91;64.47
35248;BME280;21380;52.194;20.520;2023-06-26T01:22:19;100461.25;;;21.90;64.11
35248;BME280;21380;52.194;20.520;2023-06-26T01:24:54;100463.88;;;21.90;64.15
35248;BME280;21380;52.194;20.520;2023-06-26T01:27:23;100467.38;;;21.89;63.96
35248;BME280;21380;52.194;20.520;2023-06-26T01:29:50;100463.91;;;21.89;64.21
35248;BME280;21380;52.194;20.520;2023-06-26T01:32:17;100460.38;;;21.88;64.14
35248;BME280;21380;52.194;20.520;2023-06-26T01:34:43;100460.38;;;21.88;63.91
35248;BME280;21380;52.194;20.520;2023-06-26T01:37:10;100456.91;;;21.88;64.09
35248;BME280;21380;52.194;20.520;2023-06-26T01:39:35;100452.50;;;21.86;63.98
35248;BME280;21380;52.194;20.520;2023-06-26T01:42:01;100450.75;;;21.85;64.04
35248;BME280;21380;52.194;20.520;2023-06-26T01:44:31;100460.41;;;21.86;64.05
35248;BME280;21380;52.194;20.520;2023-06-26T01:47:01;100458.66;;;21.85;63.98
35248;BME280;21380;52.194;20.520;2023-06-26T01:50:02;100459.53;;;21.84;64.23
35248;BME280;21380;52.194;20.520;2023-06-26T01:54:49;100458.66;;;21.84;64.01
35248;BME280;21380;52.194;20.520;2023-06-26T01:57:18;100456.91;;;21.84;64.12
35248;BME280;21380;52.194;20.520;2023-06-26T01:59:45;100453.41;;;21.84;64.04
35248;BME280;21380;52.194;20.520;2023-06-26T02:02:12;100450.81;;;21.82;63.94
35248;BME280;21380;52.194;20.520;2023-06-26T02:04:37;100450.81;;;21.82;64.12
35248;BME280;21380;52.194;20.520;2023-06-26T02:07:03;100453.41;;;21.82;63.99
35248;BME280;21380;52.194;20.520;2023-06-26T02:09:29;100450.78;;;21.81;63.72
35248;BME280;21380;52.194;20.520;2023-06-26T02:11:55;100446.41;;;21.81;64.01
35248;BME280;21380;52.194;20.520;2023-06-26T02:14:21;100449.94;;;21.80;63.60
35248;BME280;21380;52.194;20.520;2023-06-26T02:16:46;100444.66;;;21.80;63.65
35248;BME280;21380;52.194;20.520;2023-06-26T02:19:12;100447.28;;;21.80;63.84
35248;BME280;21380;52.194;20.520;2023-06-26T02:21:38;100445.53;;;21.79;63.68
35248;BME280;21380;52.194;20.520;2023-06-26T02:24:04;100441.16;;;21.78;63.91
35248;BME280;21380;52.194;20.520;2023-06-26T02:26:30;100438.53;;;21.78;63.89
35248;BME280;21380;52.194;20.520;2023-06-26T02:28:56;100435.91;;;21.78;63.49
35248;BME280;21380;52.194;20.520;2023-06-26T02:31:21;100441.16;;;21.78;63.87
35248;BME280;21380;52.194;20.520;2023-06-26T02:33:47;100431.56;;;21.77;63.79
35248;BME280;21380;52.194;20.520;2023-06-26T02:36:13;100432.44;;;21.76;63.89
35248;BME280;21380;52.194;20.520;2023-06-26T02:38:38;100434.19;;;21.77;63.78
35248;BME280;21380;52.194;20.520;2023-06-26T02:41:04;100437.69;;;21.76;63.90
35248;BME280;21380;52.194;20.520;2023-06-26T02:43:30;100429.81;;;21.76;63.69
35248;BME280;21380;52.194;20.520;2023-06-26T02:45:56;100442.06;;;21.76;63.93
35248;BME280;21380;52.194;20.520;2023-06-26T02:48:21;100442.94;;;21.76;63.97
35248;BME280;21380;52.194;20.520;2023-06-26T02:50:47;100442.94;;;21.76;63.82
35248;BME280;21380;52.194;20.520;2023-06-26T02:53:13;100441.19;;;21.77;63.83
35248;BME280;21380;52.194;20.520;2023-06-26T02:55:39;100440.31;;;21.76;63.77
35248;BME280;21380;52.194;20.520;2023-06-26T02:58:04;100443.81;;;21.77;63.68
35248;BME280;21380;52.194;20.520;2023-06-26T03:00:30;100440.31;;;21.76;64.00
35248;BME280;21380;52.194;20.520;2023-06-26T03:02:56;100437.69;;;21.76;64.00
35248;BME280;21380;52.194;20.520;2023-06-26T03:08:14;100440.31;;;21.76;63.82
35248;BME280;21380;52.194;20.520;2023-06-26T03:10:40;100439.44;;;21.76;63.83
35248;BME280;21380;52.194;20.520;2023-06-26T03:13:05;100437.69;;;21.76;63.99
35248;BME280;21380;52.194;20.520;2023-06-26T03:15:32;100437.69;;;21.76;63.98
35248;BME280;21380;52.194;20.520;2023-06-26T03:17:57;100437.69;;;21.76;63.83
35248;BME280;21380;52.194;20.520;2023-06-26T03:20:23;100435.06;;;21.76;63.77
35248;BME280;21380;52.194;20.520;2023-06-26T03:22:49;100429.81;;;21.76;63.96
35248;BME280;21380;52.194;20.520;2023-06-26T03:25:15;100438.56;;;21.77;63.90
35248;BME280;21380;52.194;20.520;2023-06-26T03:27:40;100435.06;;;21.78;63.81
35248;BME280;21380;52.194;20.520;2023-06-26T03:30:06;100430.69;;;21.77;64.06
35248;BME280;21380;52.194;20.520;2023-06-26T03:32:32;100440.31;;;21.78;64.01
35248;BME280;21380;52.194;20.520;2023-06-26T03:34:58;100435.06;;;21.78;63.84
35248;BME280;21380;52.194;20.520;2023-06-26T03:37:23;100435.06;;;21.78;63.78
35248;BME280;21380;52.194;20.520;2023-06-26T03:39:49;100434.19;;;21.79;63.79
35248;BME280;21380;52.194;20.520;2023-06-26T03:42:15;100435.91;;;21.78;63.95
35248;BME280;21380;52.194;20.520;2023-06-26T03:44:41;100433.31;;;21.80;64.13
35248;BME280;21380;52.194;20.520;2023-06-26T03:47:07;100434.19;;;21.79;63.96
35248;BME280;21380;52.194;20.520;2023-06-26T03:49:32;100440.28;;;21.81;63.89
35248;BME280;21380;52.194;20.520;2023-06-26T03:51:58;100444.66;;;21.82;63.87
35248;BME280;21380;52.194;20.520;2023-06-26T03:54:24;100437.66;;;21.82;63.97
35248;BME280;21380;52.194;20.520;2023-06-26T03:56:49;100440.28;;;21.82;64.15
35248;BME280;21380;52.194;20.520;2023-06-26T03:59:15;100438.53;;;21.83;63.93
35248;BME280;21380;52.194;20.520;2023-06-26T04:01:41;100440.28;;;21.84;64.21
35248;BME280;21380;52.194;20.520;2023-06-26T04:04:07;100442.88;;;21.85;64.03
35248;BME280;21380;52.194;20.520;2023-06-26T04:06:32;100449.03;;;21.86;64.19
35248;BME280;21380;52.194;20.520;2023-06-26T04:08:59;100450.75;;;21.87;64.22
35248;BME280;21380;52.194;20.520;2023-06-26T04:11:24;100452.50;;;21.88;64.14
35248;BME280;21380;52.194;20.520;2023-06-26T04:13:50;100452.50;;;21.88;64.32
35248;BME280;21380;52.194;20.520;2023-06-26T04:16:16;100452.47;;;21.90;64.00
35248;BME280;21380;52.194;20.520;2023-06-26T04:18:42;100447.22;;;21.90;64.20
35248;BME280;21380;52.194;20.520;2023-06-26T04:21:08;100458.63;;;21.92;64.38
35248;BME280;21380;52.194;20.520;2023-06-26T04:23:35;100445.47;;;21.92;64.44
35248;BME280;21380;52.194;20.520;2023-06-26T04:26:01;100449.00;;;21.92;64.53
35248;BME280;21380;52.194;20.520;2023-06-26T04:28:28;100447.22;;;21.94;64.30
35248;BME280;21380;52.194;20.520;2023-06-26T04:30:54;100449.81;;;21.96;64.37
35248;BME280;21380;52.194;20.520;2023-06-26T04:33:20;100448.97;;;21.95;64.22
35248;BME280;21380;52.194;20.520;2023-06-26T04:35:45;100445.47;;;21.96;64.18
35248;BME280;21380;52.194;20.520;2023-06-26T04:38:14;100446.31;;;21.97;64.60
35248;BME280;21380;52.194;20.520;2023-06-26T04:40:40;100447.22;;;21.97;64.55
35248;BME280;21380;52.194;20.520;2023-06-26T04:43:06;100443.69;;;21.98;64.23
35248;BME280;21380;52.194;20.520;2023-06-26T04:45:32;100445.44;;;21.99;64.37
35248;BME280;21380;52.194;20.520;2023-06-26T04:47:58;100442.81;;;21.99;64.30
35248;BME280;21380;52.194;20.520;2023-06-26T04:50:25;100446.31;;;22.00;64.50
35248;BME280;21380;52.194;20.520;2023-06-26T04:52:51;100448.06;;;22.01;64.23
35248;BME280;21380;52.194;20.520;2023-06-26T04:55:16;100443.69;;;22.01;64.25
35248;BME280;21380;52.194;20.520;2023-06-26T04:57:42;100444.53;;;22.02;64.29
35248;BME280;21380;52.194;20.520;2023-06-26T05:00:08;100445.44;;;22.02;64.30
35248;BME280;21380;52.194;20.520;2023-06-26T05:02:36;100437.53;;;22.04;64.41
35248;BME280;21380;52.194;20.520;2023-06-26T05:05:02;100441.91;;;22.05;64.62
35248;BME280;21380;52.194;20.520;2023-06-26T05:07:28;100442.75;;;22.06;64.65
35248;BME280;21380;52.194;20.520;2023-06-26T05:09:54;100442.78;;;22.07;64.61
35248;BME280;21380;52.194;20.520;2023-06-26T05:12:19;100444.50;;;22.08;64.74
35248;BME280;21380;52.194;20.520;2023-06-26T05:14:45;100440.13;;;22.09;64.39
35248;BME280;21380;52.194;20.520;2023-06-26T05:17:13;100440.13;;;22.10;64.68
35248;BME280;21380;52.194;20.520;2023-06-26T05:19:39;100440.97;;;22.11;64.55
35248;BME280;21380;52.194;20.520;2023-06-26T05:22:05;100444.50;;;22.11;64.62
35248;BME280;21380;52.194;20.520;2023-06-26T05:24:36;100445.34;;;22.13;64.69
35248;BME280;21380;52.194;20.520;2023-06-26T05:27:03;100439.19;;;22.14;64.79
35248;BME280;21380;52.194;20.520;2023-06-26T05:29:32;100439.22;;;22.16;64.79
35248;BME280;21380;52.194;20.520;2023-06-26T05:31:58;100438.31;;;22.17;64.46
35248;BME280;21380;52.194;20.520;2023-06-26T05:34:24;100433.06;;;22.18;64.90
35248;BME280;21380;52.194;20.520;2023-06-26T05:36:51;100436.53;;;22.19;64.68
35248;BME280;21380;52.194;20.520;2023-06-26T05:39:17;100433.91;;;22.21;64.78
35248;BME280;21380;52.194;20.520;2023-06-26T05:41:43;100440.03;;;22.21;64.92
35248;BME280;21380;52.194;20.520;2023-06-26T05:44:09;100432.16;;;22.23;65.05
35248;BME280;21380;52.194;20.520;2023-06-26T05:46:35;100433.00;;;22.23;64.92
35248;BME280;21380;52.194;20.520;2023-06-26T05:49:00;100435.66;;;22.25;64.80
35248;BME280;21380;52.194;20.520;2023-06-26T05:51:27;100435.66;;;22.25;65.07
35248;BME280;21380;52.194;20.520;2023-06-26T05:53:53;100435.66;;;22.25;64.83
35248;BME280;21380;52.194;20.520;2023-06-26T05:56:19;100432.09;;;22.26;65.05
35248;BME280;21380;52.194;20.520;2023-06-26T05:58:45;100430.38;;;22.25;64.88
35248;BME280;21380;52.194;20.520;2023-06-26T06:01:11;100426.84;;;22.26;65.08
35248;BME280;21380;52.194;20.520;2023-06-26T06:03:36;100421.59;;;22.26;64.79
35248;BME280;21380;52.194;20.520;2023-06-26T06:06:03;100424.22;;;22.26;65.13
35248;BME280;21380;52.194;20.520;2023-06-26T06:08:29;100428.63;;;22.25;65.12
35248;BME280;21380;52.194;20.520;2023-06-26T06:10:55;100425.13;;;22.26;65.21
35248;BME280;21380;52.194;20.520;2023-06-26T06:13:20;100422.50;;;22.26;65.23
35248;BME280;21380;52.194;20.520;2023-06-26T06:15:46;100426.84;;;22.26;65.22
35248;BME280;21380;52.194;20.520;2023-06-26T06:18:12;100426.84;;;22.26;65.32
35248;BME280;21380;52.194;20.520;2023-06-26T06:20:38;100425.97;;;22.27;65.12
35248;BME280;21380;52.194;20.520;2023-06-26T06:23:03;100418.97;;;22.26;65.28
35248;BME280;21380;52.194;20.520;2023-06-26T06:25:29;100417.22;;;22.26;65.33
35248;BME280;21380;52.194;20.520;2023-06-26T06:27:55;100424.22;;;22.26;65.13
35248;BME280;21380;52.194;20.520;2023-06-26T06:30:21;100419.84;;;22.26;65.45
35248;BME280;21380;52.194;20.520;2023-06-26T06:32:46;100423.34;;;22.27;65.18
35248;BME280;21380;52.194;20.520;2023-06-26T06:35:17;100418.97;;;22.26;65.49
35248;BME280;21380;52.194;20.520;2023-06-26T06:37:42;100418.09;;;22.27;65.48
35248;BME280;21380;52.194;20.520;2023-06-26T06:40:09;100414.59;;;22.28;65.42
35248;BME280;21380;52.194;20.520;2023-06-26T06:42:35;100417.22;;;22.28;65.31
35248;BME280;21380;52.194;20.520;2023-06-26T06:45:04;100416.34;;;22.27;65.40
35248;BME280;21380;52.194;20.520;2023-06-26T06:47:30;100417.19;;;22.29;65.37
35248;BME280;21380;52.194;20.520;2023-06-26T06:49:56;100419.81;;;22.29;65.36
35248;BME280;21380;52.194;20.520;2023-06-26T06:52:21;100411.06;;;22.30;65.59
35248;BME280;21380;52.194;20.520;2023-06-26T06:54:51;100411.09;;;22.29;65.24
35248;BME280;21380;52.194;20.520;2023-06-26T06:57:16;100416.34;;;22.29;65.33
35248;BME280;21380;52.194;20.520;2023-06-26T06:59:42;100417.34;;;22.12;66.35
35248;BME280;21380;52.194;20.520;2023-06-26T07:02:08;100419.22;;;21.90;69.00
35248;BME280;21380;52.194;20.520;2023-06-26T07:04:34;100413.09;;;21.93;68.67
35248;BME280;21380;52.194;20.520;2023-06-26T07:06:59;100420.91;;;22.02;68.37
35248;BME280;21380;52.194;20.520;2023-06-26T07:09:25;100419.97;;;22.11;68.12
35248;BME280;21380;52.194;20.520;2023-06-26T07:11:51;100417.31;;;22.14;68.06
35248;BME280;21380;52.194;20.520;2023-06-26T07:14:17;100415.56;;;22.17;67.52
35248;BME280;21380;52.194;20.520;2023-06-26T07:16:42;100412.88;;;22.21;67.45
35248;BME280;21380;52.194;20.520;2023-06-26T07:19:08;100406.75;;;22.22;67.38
35248;BME280;21380;52.194;20.520;2023-06-26T07:21:34;100406.72;;;22.23;67.07
35248;BME280;21380;52.194;20.520;2023-06-26T07:24:00;100402.38;;;22.24;66.81
35248;BME280;21380;52.194;20.520;2023-06-26T07:26:26;100404.09;;;22.26;67.00
35248;BME280;21380;52.194;20.520;2023-06-26T07:28:51;100406.72;;;22.26;66.82
35248;BME280;21380;52.194;20.520;2023-06-26T07:31:18;100402.31;;;22.27;66.52
35248;BME280;21380;52.194;20.520;2023-06-26T07:33:44;100398.84;;;22.26;66.53
35248;BME280;21380;52.194;20.520;2023-06-26T07:36:09;100401.44;;;22.28;66.80
35248;BME280;21380;52.194;20.520;2023-06-26T07:38:35;100378.78;;;22.16;66.46
35248;BME280;21380;52.194;20.520;2023-06-26T07:41:01;100405.81;;;22.29;66.66
35248;BME280;21380;52.194;20.520;2023-06-26T07:43:27;100408.44;;;22.29;66.65
35248;BME280;21380;52.194;20.520;2023-06-26T07:45:53;100409.31;;;22.29;66.35
35248;BME280;21380;52.194;20.520;2023-06-26T07:48:19;100399.69;;;22.30;66.55
35248;BME280;21380;52.194;20.520;2023-06-26T07:50:44;100410.19;;;22.30;66.52
35248;BME280;21380;52.194;20.520;2023-06-26T07:53:10;100402.31;;;22.30;66.29
35248;BME280;21380;52.194;20.520;2023-06-26T07:55:37;100405.81;;;22.30;66.09
35248;BME280;21380;52.194;20.520;2023-06-26T07:58:03;100404.03;;;22.31;66.33
35248;BME280;21380;52.194;20.520;2023-06-26T08:00:29;100403.19;;;22.30;66.21
35248;BME280;21380;52.194;20.520;2023-06-26T08:02:55;100397.91;;;22.30;66.13
35248;BME280;21380;52.194;20.520;2023-06-26T08:05:21;100402.31;;;22.31;66.24
35248;BME280;21380;52.194;20.520;2023-06-26T08:07:46;100398.78;;;22.31;66.41
35248;BME280;21380;52.194;20.520;2023-06-26T08:10:12;100402.31;;;22.31;66.43
35248;BME280;21380;52.194;20.520;2023-06-26T08:12:38;100394.44;;;22.30;66.08
35248;BME280;21380;52.194;20.520;2023-06-26T08:15:06;100391.78;;;22.31;66.08
35248;BME280;21380;52.194;20.520;2023-06-26T08:17:32;100394.41;;;22.31;66.16
35248;BME280;21380;52.194;20.520;2023-06-26T08:19:57;100387.38;;;22.32;65.91
35248;BME280;21380;52.194;20.520;2023-06-26T08:22:23;100389.16;;;22.31;66.04
35248;BME280;21380;52.194;20.520;2023-06-26T08:24:49;100390.03;;;22.32;66.20
35248;BME280;21380;52.194;20.520;2023-06-26T08:27:15;100387.38;;;22.32;66.31
35248;BME280;21380;52.194;20.520;2023-06-26T08:29:40;100389.16;;;22.31;66.03
35248;BME280;21380;52.194;20.520;2023-06-26T08:32:06;100386.50;;;22.33;65.86
35248;BME280;21380;52.194;20.520;2023-06-26T08:34:32;100384.75;;;22.32;66.06
35248;BME280;21380;52.194;20.520;2023-06-26T08:36:58;100381.25;;;22.33;66.24
35248;BME280;21380;52.194;20.520;2023-06-26T08:39:24;100389.13;;;22.33;65.79
35248;BME280;21380;52.194;20.520;2023-06-26T08:41:50;100384.75;;;22.32;65.97
35248;BME280;21380;52.194;20.520;2023-06-26T08:44:16;100388.28;;;22.32;65.83
35248;BME280;21380;52.194;20.520;2023-06-26T08:46:42;100378.63;;;22.33;65.73
35248;BME280;21380;52.194;20.520;2023-06-26T08:49:31;100382.16;;;22.33;66.06
35248;BME280;21380;52.194;20.520;2023-06-26T08:52:02;100381.25;;;22.33;65.86
35248;BME280;21380;52.194;20.520;2023-06-26T08:54:33;100376.00;;;22.33;65.83
35248;BME280;21380;52.194;20.520;2023-06-26T08:57:00;100381.22;;;22.34;65.87
35248;BME280;21380;52.194;20.520;2023-06-26T08:59:25;100374.25;;;22.33;65.84
35248;BME280;21380;52.194;20.520;2023-06-26T09:01:52;100371.63;;;22.33;65.96
35248;BME280;21380;52.194;20.520;2023-06-26T09:04:18;100379.50;;;22.35;65.91
35248;BME280;21380;52.194;20.520;2023-06-26T09:06:44;100374.25;;;22.33;66.00
35248;BME280;21380;52.194;20.520;2023-06-26T09:09:09;100372.50;;;22.34;65.63
35248;BME280;21380;52.194;20.520;2023-06-26T09:11:36;100366.34;;;22.35;65.90
35248;BME280;21380;52.194;20.520;2023-06-26T09:14:01;100365.47;;;22.36;65.64
35248;BME280;21380;52.194;20.520;2023-06-26T09:16:30;100361.09;;;22.35;65.87
35248;BME280;21380;52.194;20.520;2023-06-26T09:18:56;100354.97;;;22.36;65.87
35248;BME280;21380;52.194;20.520;2023-06-26T09:21:22;100358.47;;;22.35;65.72
35248;BME280;21380;52.194;20.520;2023-06-26T09:23:49;100362.88;;;22.38;65.85
35248;BME280;21380;52.194;20.520;2023-06-26T09:26:16;100356.72;;;22.37;65.96
35248;BME280;21380;52.194;20.520;2023-06-26T09:28:42;100361.09;;;22.37;65.68
35248;BME280;21380;52.194;20.520;2023-06-26T09:31:08;100351.47;;;22.37;65.71
35248;BME280;21380;52.194;20.520;2023-06-26T09:33:36;100349.72;;;22.38;65.76
35248;BME280;21380;52.194;20.520;2023-06-26T09:36:08;100356.72;;;22.37;65.83
35248;BME280;21380;52.194;20.520;2023-06-26T09:38:37;100354.09;;;22.37;65.59
35248;BME280;21380;52.194;20.520;2023-06-26T09:41:03;100353.22;;;22.38;65.60
35248;BME280;21380;52.194;20.520;2023-06-26T09:43:29;100350.56;;;22.40;65.72
35248;BME280;21380;52.194;20.520;2023-06-26T09:45:56;100349.69;;;22.39;65.74
35248;BME280;21380;52.194;20.520;2023-06-26T09:48:22;100350.56;;;22.40;65.82
35248;BME280;21380;52.194;20.520;2023-06-26T09:50:48;100352.31;;;22.39;65.56
35248;BME280;21380;52.194;20.520;2023-06-26T09:53:15;100350.56;;;22.40;65.58
35248;BME280;21380;52.194;20.520;2023-06-26T09:55:41;100347.94;;;22.40;65.51
35248;BME280;21380;52.194;20.520;2023-06-26T09:58:12;100354.06;;;22.40;65.54
35248;BME280;21380;52.194;20.520;2023-06-26T10:00:41;100355.81;;;22.40;65.63
35248;BME280;21380;52.194;20.520;2023-06-26T10:03:07;100353.19;;;22.40;65.76
35248;BME280;21380;52.194;20.520;2023-06-26T10:05:35;100346.19;;;22.40;65.79
35248;BME280;21380;52.194;20.520;2023-06-26T10:08:01;100344.41;;;22.41;65.60
35248;BME280;21380;52.194;20.520;2023-06-26T10:10:28;100342.66;;;22.40;65.58
35248;BME280;21380;52.194;20.520;2023-06-26T10:12:56;100335.69;;;22.40;65.60
35248;BME280;21380;52.194;20.520;2023-06-26T10:15:25;100345.31;;;22.41;65.55
35248;BME280;21380;52.194;20.520;2023-06-26T10:17:52;100333.06;;;22.40;65.70
35248;BME280;21380;52.194;20.520;2023-06-26T10:20:20;100325.16;;;22.40;65.74
35248;BME280;21380;52.194;20.520;2023-06-26T10:22:46;100324.28;;;22.40;65.57
35248;BME280;21380;52.194;20.520;2023-06-26T10:25:19;100319.03;;;22.40;65.51
35248;BME280;21380;52.194;20.520;2023-06-26T10:27:47;100318.13;;;22.41;65.39
35248;BME280;21380;52.194;20.520;2023-06-26T10:30:18;100322.53;;;22.40;65.62
35248;BME280;21380;52.194;20.520;2023-06-26T10:32:45;100320.75;;;22.41;65.54
35248;BME280;21380;52.194;20.520;2023-06-26T10:35:11;100311.13;;;22.40;65.63
35248;BME280;21380;52.194;20.520;2023-06-26T10:37:49;100305.88;;;22.41;65.58
35248;BME280;21380;52.194;20.520;2023-06-26T10:40:22;100312.03;;;22.40;65.44
35248;BME280;21380;52.194;20.520;2023-06-26T10:42:50;100308.53;;;22.41;65.60
35248;BME280;21380;52.194;20.520;2023-06-26T10:45:16;100309.41;;;22.40;65.65
35248;BME280;21380;52.194;20.520;2023-06-26T10:47:46;100311.13;;;22.40;65.38
35248;BME280;21380;52.194;20.520;2023-06-26T10:50:19;100298.00;;;22.40;65.63
35248;BME280;21380;52.194;20.520;2023-06-26T10:52:45;100304.13;;;22.40;65.75
35248;BME280;21380;52.194;20.520;2023-06-26T10:55:13;100287.47;;;22.40;65.45
35248;BME280;21380;52.194;20.520;2023-06-26T10:57:39;100289.22;;;22.41;65.59
35248;BME280;21380;52.194;20.520;2023-06-26T11:00:08;100294.50;;;22.41;65.40
35248;BME280;21380;52.194;20.520;2023-06-26T11:05:23;100288.38;;;22.40;65.46
35248;BME280;21380;52.194;20.520;2023-06-26T11:10:53;100292.75;;;22.41;65.55
35248;BME280;21380;52.194;20.520;2023-06-26T11:13:19;100289.22;;;22.41;65.39
35248;BME280;21380;52.194;20.520;2023-06-26T11:15:46;100280.47;;;22.42;65.70
35248;BME280;21380;52.194;20.520;2023-06-26T11:18:12;100282.22;;;22.41;65.62
35248;BME280;21380;52.194;20.520;2023-06-26T11:20:38;100275.22;;;22.40;65.56
35248;BME280;21380;52.194;20.520;2023-06-26T11:23:04;100268.22;;;22.41;65.62
35248;BME280;21380;52.194;20.520;2023-06-26T11:25:36;100275.22;;;22.42;65.44
35248;BME280;21380;52.194;20.520;2023-06-26T11:28:02;100270.84;;;22.42;65.46
35248;BME280;21380;52.194;20.520;2023-06-26T11:30:29;100268.22;;;22.42;65.77
35248;BME280;21380;52.194;20.520;2023-06-26T11:33:02;100269.94;;;22.42;65.62
35248;BME280;21380;52.194;20.520;2023-06-26T11:35:28;100268.22;;;22.42;65.60
35248;BME280;21380;52.194;20.520;2023-06-26T11:37:57;100272.56;;;22.43;65.71
35248;BME280;21380;52.194;20.520;2023-06-26T11:40:25;100261.19;;;22.43;65.64
35248;BME280;21380;52.194;20.520;2023-06-26T11:42:52;100262.94;;;22.44;65.22
35248;BME280;21380;52.194;20.520;2023-06-26T11:45:21;100263.81;;;22.43;65.62
35248;BME280;21380;52.194;20.520;2023-06-26T11:47:47;100267.31;;;22.43;65.34
35248;BME280;21380;52.194;20.520;2023-06-26T11:50:17;100260.31;;;22.42;65.57
35248;BME280;21380;52.194;20.520;2023-06-26T11:52:43;100260.31;;;22.44;65.42
35248;BME280;21380;52.194;20.520;2023-06-26T11:55:09;100256.78;;;22.45;65.63
35248;BME280;21380;52.194;20.520;2023-06-26T11:57:38;100257.69;;;22.44;65.62
35248;BME280;21380;52.194;20.520;2023-06-26T12:00:10;100249.78;;;22.44;65.24
35248;BME280;21380;52.194;20.520;2023-06-26T12:02:36;100252.41;;;22.45;65.36
35248;BME280;21380;52.194;20.520;2023-06-26T12:05:02;100243.66;;;22.45;65.29
35248;BME280;21380;52.194;20.520;2023-06-26T12:07:28;100245.38;;;22.46;65.57
35248;BME280;21380;52.194;20.520;2023-06-26T12:09:54;100241.03;;;22.45;65.58
35248;BME280;21380;52.194;20.520;2023-06-26T12:12:20;100235.75;;;22.46;65.36
35248;BME280;21380;52.194;20.520;2023-06-26T12:14:47;100233.13;;;22.46;65.45
35248;BME280;21380;52.194;20.520;2023-06-26T12:17:13;100235.75;;;22.46;65.24
35248;BME280;21380;52.194;20.520;2023-06-26T12:19:42;100233.97;;;22.47;65.06
35248;BME280;21380;52.194;20.520;2023-06-26T12:22:08;100233.13;;;22.46;65.15
35248;BME280;21380;52.194;20.520;2023-06-26T12:24:35;100238.34;;;22.48;65.10
35248;BME280;21380;52.194;20.520;2023-06-26T12:27:01;100237.50;;;22.47;65.51
35248;BME280;21380;52.194;20.520;2023-06-26T12:29:33;100238.34;;;22.48;65.32
35248;BME280;21380;52.194;20.520;2023-06-26T12:31:59;100228.69;;;22.48;65.41
35248;BME280;21380;52.194;20.520;2023-06-26T12:34:28;100225.22;;;22.48;65.44
35248;BME280;21380;52.194;20.520;2023-06-26T12:36:58;100228.69;;;22.48;65.09
35248;BME280;21380;52.194;20.520;2023-06-26T12:39:25;100219.06;;;22.49;65.19
35248;BME280;21380;52.194;20.520;2023-06-26T12:41:53;100220.81;;;22.48;65.35
35248;BME280;21380;52.194;20.520;2023-06-26T12:44:20;100219.06;;;22.49;65.17
35248;BME280;21380;52.194;20.520;2023-06-26T12:46:47;100225.19;;;22.49;65.23
35248;BME280;21380;52.194;20.520;2023-06-26T12:49:14;100217.28;;;22.49;65.25